Mesa, AZ (85201)

1:57 AM MST on July 05, 2015 (GMT -0700)
Park of the Canals | | Change Station
CLOSE
Current Station
Personal Weather Station
Location: Mesa, AZ
Elevation: 1257 ft
Nearby Weather Stations

Elev 1257 ft 33.44 °N, 111.82 °W | Updated 9 minutes ago

Partly Cloudy
Partly Cloudy
90.7 °F
Feels Like 90 °F
N
2.7
Wind Variable Wind from WNW

Today
High -- | Low -- °F
--% Chance of Precip.
Yesterday
High -- | Low -- °F
Precip. -- in
5:23 AM 7:40 PM
Waning Gibbous, 86% visible
Pressure 29.74 in
Visibility 10.0 miles
Clouds Mostly Cloudy 20000 ft
Heat Index 90 °F
Dew Point 60 °F
Humidity 36%
Rainfall 0.00 in
Snow Depth Not available.
UV 0 out of 12
Pollen 4.20 out of 12
Air Quality Not available.
Flu Activity Not available.
METAR KPHX 050851Z 29010KT 10SM BKN200 34/13 A2981 RMK AO2 SLP071 T03390133 51006

More Conditions Fewer Conditions

Pressure 29.74 in
Visibility 10.0 miles
Clouds Mostly Cloudy 20000 ft
Heat Index 90 °F
Dew Point 60 °F
Humidity 36%
Rainfall 0.00 in
Snow Depth Not available.
UV 0 out of 12
Pollen 4.20 out of 12
Air Quality Not available.
Flu Activity Not available.
METAR KPHX 050851Z 29010KT 10SM BKN200 34/13 A2981 RMK AO2 SLP071 T03390133 51006

More Conditions Fewer Conditions

10-Day Weather Forecast

×

Almanac

Astronomy

Jul. 05, 2015 Rise Set
Actual Time
Civil Twilight
Nautical Twilight
Astronomical Twilight
Moon
Length of Visible Light
Length of Day
Tomorrow will be .
, % of the Moon is Illuminated

Today's Extremes

State Highs State Lows

Community

WunderPhotos

Upload Photos

1,835,217 photos uploaded!

WunderBlogs® & News

Nearby

Air Quality

  Air Quality AQ Index Pollutant
Not available.

Snow Depth

Station Depth Elevation

Earthquake Activity

City Distance Mag. Time & Date
Minimum magnitude displayed is 2.5.

Coastal Water Temperatures

Place Temperature

Stations

Nearby Weather Stations

Station Location Temp. Windchill Dew Point Humidity Wind Precip. Elev Updated Type